createdAt,value
2023-05-01T00:01:43.682Z,17.52
2023-05-01T00:04:11.181Z,16.10
2023-05-01T00:06:38.970Z,17.30
2023-05-01T00:09:07.172Z,16.40
2023-05-01T00:11:37.380Z,19.07
2023-05-01T00:14:04.792Z,22.33
2023-05-01T00:16:32.865Z,19.40
2023-05-01T00:19:00.537Z,19.07
2023-05-01T00:21:28.900Z,26.05
2023-05-01T00:23:56.377Z,19.37
2023-05-01T00:26:27.202Z,22.13
2023-05-01T00:28:55.160Z,19.10
2023-05-01T00:31:22.615Z,23.33
2023-05-01T00:33:50.069Z,19.83
2023-05-01T00:36:17.737Z,19.80
2023-05-01T00:38:46.492Z,19.30
2023-05-01T00:41:14.142Z,23.80
2023-05-01T00:43:41.642Z,22.23
2023-05-01T00:46:10.130Z,22.23
2023-05-01T00:48:37.796Z,23.10
2023-05-01T00:51:06.483Z,22.53
2023-05-01T00:53:34.560Z,23.67
2023-05-01T00:56:02.105Z,23.03
2023-05-01T00:58:30.296Z,26.07
2023-05-01T01:00:58.304Z,24.40
2023-05-01T01:03:25.932Z,24.77
2023-05-01T01:06:08.460Z,21.27
2023-05-01T01:09:08.593Z,24.00
2023-05-01T01:11:58.824Z,21.30
2023-05-01T01:14:34.117Z,20.67
2023-05-01T01:17:05.921Z,24.40
2023-05-01T01:19:42.549Z,20.20
2023-05-01T01:22:13.178Z,21.90
2023-05-01T01:24:40.684Z,23.93
2023-05-01T01:27:27.421Z,20.87
2023-05-01T01:30:03.619Z,20.80
2023-05-01T01:32:50.135Z,23.77
2023-05-01T01:35:21.836Z,22.67
2023-05-01T01:37:50.905Z,22.03
2023-05-01T01:40:20.222Z,23.37
2023-05-01T01:42:53.777Z,22.37
2023-05-01T01:45:26.652Z,24.27
2023-05-01T01:47:55.622Z,22.90
2023-05-01T01:50:25.534Z,25.73
2023-05-01T01:52:53.983Z,23.83
2023-05-01T01:55:28.238Z,24.57
2023-05-01T01:57:57.062Z,20.87
2023-05-01T02:00:24.756Z,21.90
2023-05-01T02:02:53.332Z,24.23
2023-05-01T02:05:22.805Z,21.37
2023-05-01T02:07:52.052Z,25.40
2023-05-01T02:10:21.035Z,22.10
2023-05-01T02:12:51.103Z,22.33
2023-05-01T02:15:21.886Z,23.33
2023-05-01T02:17:51.371Z,20.27
2023-05-01T02:20:19.320Z,20.70
2023-05-01T02:22:47.501Z,21.93
2023-05-01T02:25:16.993Z,20.53
2023-05-01T02:27:49.052Z,22.57
2023-05-01T02:30:17.180Z,20.73
2023-05-01T02:32:44.819Z,16.63
2023-05-01T02:35:12.476Z,16.33
2023-05-01T02:37:40.265Z,17.60
2023-05-01T02:40:08.693Z,17.30
2023-05-01T02:42:37.752Z,17.20
2023-05-01T02:45:07.541Z,18.13
2023-05-01T02:47:37.168Z,16.77
2023-05-01T02:50:05.303Z,18.03
2023-05-01T02:52:34.755Z,16.63
2023-05-01T02:55:25.922Z,15.93
2023-05-01T02:57:53.497Z,15.50
2023-05-01T03:00:20.957Z,19.00
2023-05-01T03:02:48.620Z,16.07
2023-05-01T03:05:16.582Z,18.20
2023-05-01T03:07:44.758Z,20.87
2023-05-01T03:10:12.424Z,21.73
2023-05-01T03:12:40.640Z,19.53
2023-05-01T03:15:08.434Z,18.67
2023-05-01T03:17:36.138Z,20.57
2023-05-01T03:20:06.359Z,23.30
2023-05-01T03:22:34.183Z,21.53
2023-05-01T03:25:01.653Z,19.67
2023-05-01T03:27:29.963Z,19.40
2023-05-01T03:29:58.273Z,19.83
2023-05-01T03:32:26.422Z,18.97
2023-05-01T03:34:54.826Z,20.20
2023-05-01T03:37:22.438Z,24.13
2023-05-01T03:39:51.720Z,19.93
2023-05-01T03:42:37.804Z,21.63
2023-05-01T03:45:12.257Z,23.87
2023-05-01T03:47:40.169Z,24.07
2023-05-01T03:50:09.260Z,21.67
2023-05-01T03:52:39.032Z,23.10
2023-05-01T03:55:07.596Z,20.13
2023-05-01T03:57:42.235Z,25.53
2023-05-01T04:00:11.916Z,21.07
2023-05-01T04:02:47.783Z,18.77
2023-05-01T04:05:22.937Z,19.30
2023-05-01T04:07:54.547Z,22.07
2023-05-01T04:10:21.940Z,16.40
2023-05-01T04:12:57.726Z,21.70
2023-05-01T04:15:25.260Z,21.90
2023-05-01T04:17:54.300Z,23.50
2023-05-01T04:20:21.755Z,21.75
2023-05-01T04:22:50.086Z,23.45
2023-05-01T04:25:18.321Z,24.35
2023-05-01T04:27:48.499Z,22.33
2023-05-01T04:30:16.880Z,31.80
2023-05-01T04:32:44.776Z,26.77
2023-05-01T04:35:12.576Z,22.95
2023-05-01T04:37:43.505Z,24.38
2023-05-01T04:40:11.931Z,26.20
2023-05-01T04:42:40.747Z,21.33
2023-05-01T04:45:11.202Z,18.63
2023-05-01T04:47:38.726Z,20.63
2023-05-01T04:50:06.849Z,16.75
2023-05-01T04:52:34.714Z,20.50
2023-05-01T04:55:04.099Z,16.13
2023-05-01T04:57:35.475Z,17.45
2023-05-01T05:00:07.993Z,18.10
2023-05-01T05:02:43.604Z,16.27
2023-05-01T05:05:13.130Z,15.90
2023-05-01T05:07:40.701Z,14.13
2023-05-01T05:10:26.767Z,15.27
2023-05-01T05:13:11.125Z,15.35
2023-05-01T05:15:39.719Z,17.63
2023-05-01T05:18:10.680Z,16.15
2023-05-01T05:20:41.290Z,14.07
2023-05-01T05:23:09.386Z,19.25
2023-05-01T05:25:37.272Z,16.58
2023-05-01T05:28:05.117Z,15.82
2023-05-01T05:30:32.830Z,15.15
2023-05-01T05:33:00.816Z,15.05
2023-05-01T05:35:28.473Z,16.30
2023-05-01T05:37:56.051Z,17.83
2023-05-01T05:40:24.401Z,18.20
2023-05-01T05:42:57.386Z,17.10
2023-05-01T05:45:27.338Z,16.38
2023-05-01T05:47:55.385Z,18.00
2023-05-01T05:50:23.898Z,15.13
2023-05-01T05:52:51.605Z,16.17
2023-05-01T05:55:19.477Z,14.52
2023-05-01T05:58:00.152Z,16.48
2023-05-01T06:00:28.148Z,16.55
2023-05-01T06:02:57.473Z,15.90
2023-05-01T06:05:28.004Z,17.70
2023-05-01T06:07:55.917Z,18.23
2023-05-01T06:10:23.299Z,18.60
2023-05-01T06:12:57.527Z,19.15
2023-05-01T06:15:30.111Z,18.17
2023-05-01T06:17:59.222Z,19.15
2023-05-01T06:20:27.056Z,17.90
2023-05-01T06:22:56.196Z,19.60
2023-05-01T06:25:31.186Z,19.75
2023-05-01T06:27:58.914Z,20.98
2023-05-01T06:30:26.515Z,23.90
2023-05-01T06:32:54.006Z,20.75
2023-05-01T06:35:21.999Z,20.50
2023-05-01T06:37:50.729Z,26.05
2023-05-01T06:40:18.167Z,22.30
2023-05-01T06:42:45.661Z,20.55
2023-05-01T06:45:13.107Z,16.75
2023-05-01T06:47:40.822Z,16.40
2023-05-01T06:50:09.756Z,17.02
2023-05-01T06:52:37.178Z,13.77
2023-05-01T06:55:07.280Z,10.98
2023-05-01T06:57:35.221Z,11.32
2023-05-01T07:00:02.609Z,12.68
2023-05-01T07:02:30.298Z,11.20
2023-05-01T07:04:57.787Z,10.52
2023-05-01T07:07:25.199Z,10.27
2023-05-01T07:09:52.576Z,8.05
2023-05-01T07:12:19.975Z,9.02
2023-05-01T07:14:47.518Z,10.52
2023-05-01T07:17:14.866Z,8.05
2023-05-01T07:19:42.560Z,9.27
2023-05-01T07:22:10.051Z,7.90
2023-05-01T07:24:37.373Z,8.93
2023-05-01T07:27:04.929Z,8.13
2023-05-01T07:29:32.340Z,12.80
2023-05-01T07:32:01.480Z,6.97
2023-05-01T07:34:28.901Z,7.18
2023-05-01T07:36:57.028Z,6.00
2023-05-01T07:39:25.178Z,7.28
2023-05-01T07:41:52.547Z,6.38
2023-05-01T07:44:19.924Z,7.47
2023-05-01T07:46:47.277Z,5.65
2023-05-01T07:49:14.799Z,7.82
2023-05-01T07:51:42.814Z,4.47
2023-05-01T07:54:10.445Z,6.53
2023-05-01T07:56:37.973Z,6.40
2023-05-01T07:59:05.553Z,9.10
2023-05-01T08:01:34.970Z,6.72
2023-05-01T08:04:02.519Z,6.63
2023-05-01T08:06:32.208Z,5.72
2023-05-01T08:08:59.795Z,6.60
2023-05-01T08:11:29.423Z,5.95
2023-05-01T08:13:56.880Z,7.72
2023-05-01T08:16:24.438Z,6.88
2023-05-01T08:18:51.860Z,7.90
2023-05-01T08:21:19.235Z,8.02
2023-05-01T08:23:46.710Z,6.55
2023-05-01T08:26:14.150Z,7.43
2023-05-01T08:28:42.352Z,7.35
2023-05-01T08:31:09.835Z,8.73
2023-05-01T08:33:37.244Z,4.68
2023-05-01T08:36:04.905Z,4.75
2023-05-01T08:38:32.403Z,8.20
2023-05-01T08:41:01.766Z,6.00
2023-05-01T08:43:31.612Z,5.85
2023-05-01T08:46:03.138Z,6.00
2023-05-01T08:48:32.727Z,6.60
2023-05-01T08:51:01.472Z,9.73
2023-05-01T08:53:29.796Z,8.85
2023-05-01T08:55:57.565Z,7.45
2023-05-01T08:58:26.538Z,7.13
2023-05-01T09:00:56.829Z,8.18
2023-05-01T09:03:24.850Z,7.10
2023-05-01T09:05:53.219Z,6.95
2023-05-01T09:08:20.847Z,6.85
2023-05-01T09:10:49.364Z,7.00
2023-05-01T09:13:17.125Z,6.13
2023-05-01T09:15:44.801Z,6.30
2023-05-01T09:18:13.013Z,8.60
2023-05-01T09:20:41.236Z,8.75
2023-05-01T09:23:08.710Z,8.82
2023-05-01T09:25:36.623Z,7.38
2023-05-01T09:28:05.905Z,7.70
2023-05-01T09:30:34.497Z,6.65
2023-05-01T09:33:12.371Z,8.45
2023-05-01T09:35:56.207Z,11.43
2023-05-01T09:38:27.868Z,8.30
2023-05-01T09:40:56.942Z,8.15
2023-05-01T09:43:31.863Z,5.35
2023-05-01T09:46:05.065Z,6.13
2023-05-01T09:48:35.051Z,6.28
2023-05-01T09:51:20.357Z,7.90
2023-05-01T09:53:47.919Z,7.47
2023-05-01T09:56:15.311Z,5.65
2023-05-01T09:58:42.688Z,5.57
2023-05-01T10:01:10.403Z,6.32
2023-05-01T10:03:38.747Z,6.10
2023-05-01T10:06:06.371Z,5.25
2023-05-01T10:08:50.236Z,5.65
2023-05-01T10:11:17.738Z,5.43
2023-05-01T10:13:45.077Z,8.45
2023-05-01T10:16:31.941Z,4.20
2023-05-01T10:19:02.427Z,7.95
2023-05-01T10:21:33.347Z,4.18
2023-05-01T10:24:03.113Z,5.32
2023-05-01T10:26:30.884Z,7.93
2023-05-01T10:28:59.578Z,5.20
2023-05-01T10:31:27.932Z,5.60
2023-05-01T10:33:56.053Z,4.80
2023-05-01T10:36:39.267Z,4.63
2023-05-01T10:39:07.271Z,5.18
2023-05-01T10:41:53.265Z,4.80
2023-05-01T10:44:21.811Z,6.20
2023-05-01T10:46:49.172Z,7.75
2023-05-01T10:49:17.058Z,6.07
2023-05-01T10:51:59.873Z,4.95
2023-05-01T10:54:27.372Z,7.35
2023-05-01T10:56:55.982Z,5.53
2023-05-01T10:59:23.527Z,5.85
2023-05-01T11:01:54.687Z,5.38
2023-05-01T11:04:25.372Z,7.07
2023-05-01T11:07:06.470Z,6.57
2023-05-01T11:09:43.671Z,5.38
2023-05-01T11:12:12.627Z,5.50
2023-05-01T11:14:56.847Z,6.05
2023-05-01T11:17:43.107Z,5.88
2023-05-01T11:20:34.607Z,5.90
2023-05-01T11:23:02.150Z,7.45
2023-05-01T11:25:34.012Z,4.68
2023-05-01T11:28:02.507Z,6.05
2023-05-01T11:30:42.496Z,4.93
2023-05-01T11:33:11.164Z,4.53
2023-05-01T11:35:39.339Z,5.97
2023-05-01T11:38:06.760Z,6.90
2023-05-01T11:40:35.293Z,4.65
2023-05-01T11:43:04.082Z,5.28
2023-05-01T11:45:31.977Z,6.70
2023-05-01T11:48:02.858Z,6.50
2023-05-01T11:50:35.874Z,7.50
2023-05-01T11:53:04.236Z,5.85
2023-05-01T11:55:32.418Z,6.50
2023-05-01T11:57:59.804Z,7.30
2023-05-01T12:00:31.678Z,4.78
2023-05-01T12:03:00.223Z,5.80
2023-05-01T12:05:28.834Z,4.45
2023-05-01T12:08:13.403Z,5.93
2023-05-01T12:10:42.690Z,5.82
2023-05-01T12:13:11.027Z,5.80
2023-05-01T12:15:40.931Z,7.90
2023-05-01T12:18:08.976Z,6.32
2023-05-01T12:20:40.930Z,6.13
2023-05-01T12:23:10.668Z,7.13
2023-05-01T12:25:39.506Z,6.05
2023-05-01T12:28:10.574Z,8.38
2023-05-01T12:30:38.696Z,7.50
2023-05-01T12:33:16.635Z,5.25
2023-05-01T12:35:47.922Z,6.70
2023-05-01T12:38:22.167Z,4.57
2023-05-01T12:40:57.806Z,6.20
2023-05-01T12:43:32.536Z,6.70
2023-05-01T12:46:00.420Z,5.95
2023-05-01T12:48:28.347Z,9.75
2023-05-01T12:50:56.287Z,5.55
2023-05-01T12:53:27.975Z,6.90
2023-05-01T12:55:56.998Z,5.03
2023-05-01T12:58:24.956Z,6.53
2023-05-01T13:00:53.809Z,5.90
2023-05-01T13:03:25.304Z,5.70
2023-05-01T13:05:59.979Z,5.50
2023-05-01T13:08:29.166Z,5.85
2023-05-01T13:10:57.412Z,3.80
2023-05-01T13:13:28.681Z,6.70
2023-05-01T13:16:04.324Z,7.70
2023-05-01T13:18:32.499Z,4.75
2023-05-01T13:21:08.135Z,7.18
2023-05-01T13:23:35.968Z,4.13
2023-05-01T13:26:04.974Z,6.00
2023-05-01T13:28:32.396Z,5.40
2023-05-01T13:30:59.980Z,5.28
2023-05-01T13:33:28.459Z,5.65
2023-05-01T13:35:57.337Z,7.38
2023-05-01T13:38:25.211Z,5.00
2023-05-01T13:40:53.077Z,3.95
2023-05-01T13:43:22.416Z,5.85
2023-05-01T13:45:49.953Z,5.18
2023-05-01T13:48:19.034Z,4.55
2023-05-01T13:50:46.501Z,6.68
2023-05-01T13:53:14.972Z,6.65
2023-05-01T13:55:43.079Z,6.65
2023-05-01T13:58:10.563Z,6.70
2023-05-01T14:00:38.672Z,5.93
2023-05-01T14:03:06.626Z,6.80
2023-05-01T14:05:34.211Z,4.53
2023-05-01T14:08:02.290Z,6.30
2023-05-01T14:10:29.925Z,4.78
2023-05-01T14:12:58.746Z,6.22
2023-05-01T14:15:26.692Z,4.80
2023-05-01T14:17:54.228Z,5.65
2023-05-01T14:20:21.829Z,5.88
2023-05-01T14:22:52.042Z,4.25
2023-05-01T14:25:26.740Z,5.53
2023-05-01T14:27:55.120Z,6.78
2023-05-01T14:30:30.060Z,4.03
2023-05-01T14:32:57.691Z,3.50
2023-05-01T14:35:25.503Z,6.72
2023-05-01T14:37:53.008Z,4.45
2023-05-01T14:40:26.910Z,4.93
2023-05-01T14:42:58.532Z,7.05
2023-05-01T14:45:25.984Z,4.80
2023-05-01T14:47:53.420Z,4.65
2023-05-01T14:50:21.746Z,6.28
2023-05-01T14:52:54.432Z,5.57
2023-05-01T14:55:24.317Z,5.00
2023-05-01T14:57:51.732Z,6.55
2023-05-01T15:00:19.636Z,4.03
2023-05-01T15:02:47.274Z,4.38
2023-05-01T15:05:15.079Z,5.45
2023-05-01T15:07:42.513Z,4.95
2023-05-01T15:10:10.444Z,4.07
2023-05-01T15:12:37.760Z,6.00
2023-05-01T15:15:05.646Z,5.75
2023-05-01T15:17:33.215Z,5.53
2023-05-01T15:20:00.914Z,3.75
2023-05-01T15:22:28.358Z,6.15
2023-05-01T15:24:55.926Z,6.25
2023-05-01T15:27:23.475Z,5.90
2023-05-01T15:29:51.174Z,4.13
2023-05-01T15:32:18.880Z,4.05
2023-05-01T15:34:46.413Z,3.55
2023-05-01T15:37:13.874Z,5.80
2023-05-01T15:39:41.610Z,8.20
2023-05-01T15:42:09.818Z,5.35
2023-05-01T15:44:37.279Z,7.10
2023-05-01T15:47:04.889Z,7.25
2023-05-01T15:49:32.383Z,6.45
2023-05-01T15:52:00.024Z,5.07
2023-05-01T15:54:27.901Z,4.47
2023-05-01T15:56:55.674Z,4.90
2023-05-01T15:59:23.202Z,4.95
2023-05-01T16:01:53.465Z,5.53
2023-05-01T16:04:21.906Z,6.15
2023-05-01T16:06:49.332Z,6.72
2023-05-01T16:09:16.856Z,5.53
2023-05-01T16:11:44.851Z,6.45
2023-05-01T16:14:12.782Z,4.85
2023-05-01T16:16:43.032Z,7.63
2023-05-01T16:19:13.033Z,5.15
2023-05-01T16:21:40.481Z,5.55
2023-05-01T16:24:07.929Z,5.60
2023-05-01T16:26:36.005Z,10.77
2023-05-01T16:29:05.846Z,5.97
2023-05-01T16:31:38.991Z,6.45
2023-05-01T16:34:07.479Z,8.05
2023-05-01T16:36:42.541Z,7.57
2023-05-01T16:39:20.880Z,4.10
2023-05-01T16:41:49.316Z,5.63
2023-05-01T16:44:20.536Z,5.95
2023-05-01T16:46:58.749Z,7.80
2023-05-01T16:49:29.750Z,5.28
2023-05-01T16:51:58.633Z,4.90
2023-05-01T16:54:35.687Z,6.80
2023-05-01T16:57:03.633Z,6.93
2023-05-01T16:59:31.599Z,8.02
2023-05-01T17:01:59.056Z,6.03
2023-05-01T17:04:26.796Z,5.90
2023-05-01T17:06:56.265Z,4.95
2023-05-01T17:09:23.777Z,5.07
2023-05-01T17:11:56.907Z,6.28
2023-05-01T17:14:24.725Z,8.48
2023-05-01T17:16:52.183Z,6.53
2023-05-01T17:19:19.604Z,5.65
2023-05-01T17:21:47.089Z,9.45
2023-05-01T17:24:14.820Z,8.43
2023-05-01T17:26:42.272Z,9.02
2023-05-01T17:29:09.768Z,10.15
2023-05-01T17:31:37.323Z,6.40
2023-05-01T17:34:05.104Z,6.07
2023-05-01T17:36:32.728Z,5.90
2023-05-01T17:39:01.446Z,8.38
2023-05-01T17:41:28.981Z,7.65
2023-05-01T17:43:56.444Z,5.95
2023-05-01T17:46:23.925Z,5.00
2023-05-01T17:48:51.503Z,5.40
2023-05-01T17:51:18.877Z,7.13
2023-05-01T17:53:46.429Z,6.10
2023-05-01T17:56:13.903Z,6.25
2023-05-01T17:58:42.217Z,7.43
2023-05-01T18:01:10.355Z,9.32
2023-05-01T18:03:39.189Z,7.60
2023-05-01T18:06:06.680Z,7.85
2023-05-01T18:08:34.184Z,8.60
2023-05-01T18:11:02.036Z,10.63
2023-05-01T18:13:30.158Z,12.15
2023-05-01T18:15:57.582Z,8.38
2023-05-01T18:18:24.979Z,8.98
2023-05-01T18:20:52.429Z,11.40
2023-05-01T18:23:20.168Z,7.78
2023-05-01T18:25:47.549Z,13.63
2023-05-01T18:28:16.601Z,7.70
2023-05-01T18:30:44.124Z,8.10
2023-05-01T18:33:13.110Z,8.88
2023-05-01T18:35:42.282Z,9.43
2023-05-01T18:38:10.439Z,8.82
2023-05-01T18:40:38.098Z,9.95
2023-05-01T18:43:05.818Z,16.35
2023-05-01T18:45:33.344Z,12.88
2023-05-01T18:48:01.462Z,10.20
2023-05-01T18:50:29.168Z,16.65
2023-05-01T18:52:56.569Z,12.57
2023-05-01T18:55:25.216Z,12.00
2023-05-01T18:57:52.753Z,14.80
2023-05-01T19:00:21.406Z,13.63
2023-05-01T19:02:51.979Z,13.73
2023-05-01T19:05:20.146Z,10.02
2023-05-01T19:07:47.714Z,12.85
2023-05-01T19:10:15.194Z,21.70
2023-05-01T19:12:42.573Z,9.18
2023-05-01T19:15:10.628Z,11.48
2023-05-01T19:17:38.153Z,10.52
2023-05-01T19:20:06.071Z,15.85
2023-05-01T19:22:33.465Z,10.50
2023-05-01T19:25:01.195Z,12.60
2023-05-01T19:27:28.692Z,14.05
2023-05-01T19:29:56.933Z,13.57
2023-05-01T19:32:24.767Z,15.55
2023-05-01T19:34:52.445Z,26.67
2023-05-01T19:37:20.229Z,19.50
2023-05-01T19:39:47.869Z,12.77
2023-05-01T19:42:15.969Z,13.55
2023-05-01T19:44:43.537Z,11.27
2023-05-01T19:47:10.920Z,10.52
2023-05-01T19:49:39.030Z,17.00
2023-05-01T19:52:06.587Z,11.32
2023-05-01T19:54:34.210Z,13.88
2023-05-01T19:57:02.065Z,16.27
2023-05-01T19:59:30.736Z,12.02
2023-05-01T20:02:00.470Z,13.07
2023-05-01T20:04:29.022Z,15.88
2023-05-01T20:06:56.617Z,14.75
2023-05-01T20:09:24.022Z,13.25
2023-05-01T20:11:52.092Z,12.75
2023-05-01T20:14:19.488Z,16.67
2023-05-01T20:16:48.288Z,12.32
2023-05-01T20:19:17.784Z,13.77
2023-05-01T20:21:45.330Z,14.13
2023-05-01T20:24:12.787Z,12.25
2023-05-01T20:26:40.137Z,11.50
2023-05-01T20:29:09.428Z,14.52
2023-05-01T20:31:37.416Z,13.15
2023-05-01T20:34:05.134Z,11.88
2023-05-01T20:36:32.599Z,17.17
2023-05-01T20:39:00.144Z,15.00
2023-05-01T20:41:29.291Z,13.43
2023-05-01T20:43:57.126Z,13.18
2023-05-01T20:46:24.982Z,12.80
2023-05-01T20:48:53.509Z,14.77
2023-05-01T20:51:21.068Z,14.60
2023-05-01T20:53:48.678Z,14.05
2023-05-01T20:56:16.173Z,11.85
2023-05-01T20:58:43.671Z,13.25
2023-05-01T21:01:11.859Z,15.65
2023-05-01T21:03:40.493Z,12.88
2023-05-01T21:06:08.315Z,19.08
2023-05-01T21:08:35.825Z,18.05
2023-05-01T21:11:03.386Z,17.48
2023-05-01T21:13:32.260Z,18.20
2023-05-01T21:15:59.868Z,18.40
2023-05-01T21:18:28.433Z,15.40
2023-05-01T21:20:55.921Z,24.13
2023-05-01T21:23:26.125Z,15.63
2023-05-01T21:25:56.703Z,14.95
2023-05-01T21:28:24.500Z,15.82
2023-05-01T21:30:52.161Z,15.85
2023-05-01T21:33:19.676Z,15.93
2023-05-01T21:35:47.718Z,14.05
2023-05-01T21:38:15.384Z,13.35
2023-05-01T21:40:44.633Z,14.02
2023-05-01T21:43:12.269Z,15.13
2023-05-01T21:45:43.288Z,13.75
2023-05-01T21:48:14.516Z,15.25
2023-05-01T21:50:42.300Z,18.25
2023-05-01T21:53:09.849Z,17.75
2023-05-01T21:55:39.673Z,16.15
2023-05-01T21:58:07.019Z,13.88
2023-05-01T22:00:34.771Z,15.35
2023-05-01T22:03:06.016Z,15.52
2023-05-01T22:05:34.602Z,13.60
2023-05-01T22:08:02.286Z,14.18
2023-05-01T22:10:29.829Z,17.63
2023-05-01T22:12:57.267Z,17.00
2023-05-01T22:15:24.783Z,16.20
2023-05-01T22:17:52.610Z,16.10
2023-05-01T22:20:20.384Z,17.15
2023-05-01T22:22:47.998Z,17.90
2023-05-01T22:25:16.179Z,16.08
2023-05-01T22:27:43.574Z,22.63
2023-05-01T22:30:11.411Z,19.27
2023-05-01T22:32:39.022Z,24.08
2023-05-01T22:35:08.572Z,13.13
2023-05-01T22:37:37.666Z,16.58
2023-05-01T22:40:05.790Z,16.88
2023-05-01T22:42:33.603Z,15.95
2023-05-01T22:45:13.605Z,16.02
2023-05-01T22:47:41.277Z,18.08
2023-05-01T22:50:10.328Z,19.25
2023-05-01T22:52:37.676Z,17.67
2023-05-01T22:55:05.484Z,17.90
2023-05-01T22:57:32.900Z,17.40
2023-05-01T23:00:00.992Z,17.98
2023-05-01T23:02:28.714Z,18.42
2023-05-01T23:04:56.392Z,17.15
2023-05-01T23:07:23.772Z,17.23
2023-05-01T23:09:51.355Z,16.55
2023-05-01T23:12:23.294Z,18.48
2023-05-01T23:14:50.729Z,19.92
2023-05-01T23:17:18.417Z,15.88
2023-05-01T23:19:46.627Z,20.27
2023-05-01T23:22:14.414Z,17.40
2023-05-01T23:24:48.803Z,15.63
2023-05-01T23:27:20.148Z,17.70
2023-05-01T23:29:55.156Z,16.83
2023-05-01T23:32:27.077Z,20.00
2023-05-01T23:34:55.566Z,15.52
2023-05-01T23:37:23.254Z,17.35
2023-05-01T23:39:52.528Z,20.05
2023-05-01T23:42:20.835Z,19.75
2023-05-01T23:44:48.309Z,17.25
2023-05-01T23:47:16.298Z,18.00
2023-05-01T23:49:43.909Z,22.88
2023-05-01T23:52:11.570Z,19.45
2023-05-01T23:54:39.072Z,17.25
2023-05-01T23:57:06.531Z,21.88
2023-05-01T23:59:34.486Z,16.92
